sensor_id;sensor_type;location;lat;lon;timestamp;P1;durP1;ratioP1;P2;durP2;ratioP2
24873;SDS011;12945;42.648;23.370;2024-03-23T00:54:35;10.88;;;6.25;;
24873;SDS011;12945;42.648;23.370;2024-03-23T00:57:01;14.30;;;6.68;;
24873;SDS011;12945;42.648;23.370;2024-03-23T00:59:26;12.10;;;6.85;;
24873;SDS011;12945;42.648;23.370;2024-03-23T01:01:53;10.65;;;6.53;;
24873;SDS011;12945;42.648;23.370;2024-03-23T01:04:18;12.10;;;6.32;;
24873;SDS011;12945;42.648;23.370;2024-03-23T01:06:44;13.43;;;6.80;;
24873;SDS011;12945;42.648;23.370;2024-03-23T01:09:09;11.35;;;6.65;;
24873;SDS011;12945;42.648;23.370;2024-03-23T01:11:36;12.02;;;6.50;;
24873;SDS011;12945;42.648;23.370;2024-03-23T01:14:01;13.45;;;6.70;;
24873;SDS011;12945;42.648;23.370;2024-03-23T01:16:26;12.50;;;6.85;;
24873;SDS011;12945;42.648;23.370;2024-03-23T01:18:51;17.05;;;6.93;;
24873;SDS011;12945;42.648;23.370;2024-03-23T01:21:17;12.45;;;6.70;;
24873;SDS011;12945;42.648;23.370;2024-03-23T01:23:42;13.23;;;6.88;;
24873;SDS011;12945;42.648;23.370;2024-03-23T01:26:08;14.13;;;6.57;;
24873;SDS011;12945;42.648;23.370;2024-03-23T01:28:33;13.02;;;6.68;;
24873;SDS011;12945;42.648;23.370;2024-03-23T01:30:58;10.57;;;6.60;;
24873;SDS011;12945;42.648;23.370;2024-03-23T01:33:23;18.13;;;7.00;;
24873;SDS011;12945;42.648;23.370;2024-03-23T01:35:48;10.35;;;6.25;;
24873;SDS011;12945;42.648;23.370;2024-03-23T01:38:14;11.63;;;6.60;;
24873;SDS011;12945;42.648;23.370;2024-03-23T01:40:39;13.73;;;6.63;;
24873;SDS011;12945;42.648;23.370;2024-03-23T01:43:04;13.32;;;6.55;;
24873;SDS011;12945;42.648;23.370;2024-03-23T01:45:33;12.68;;;6.55;;
24873;SDS011;12945;42.648;23.370;2024-03-23T01:47:59;13.48;;;6.53;;
24873;SDS011;12945;42.648;23.370;2024-03-23T01:50:24;10.63;;;6.43;;
24873;SDS011;12945;42.648;23.370;2024-03-23T01:52:50;12.75;;;6.88;;
24873;SDS011;12945;42.648;23.370;2024-03-23T01:55:15;12.13;;;6.75;;
24873;SDS011;12945;42.648;23.370;2024-03-23T01:57:41;14.18;;;6.70;;
24873;SDS011;12945;42.648;23.370;2024-03-23T02:00:06;12.90;;;7.05;;
24873;SDS011;12945;42.648;23.370;2024-03-23T02:02:32;12.32;;;6.82;;
24873;SDS011;12945;42.648;23.370;2024-03-23T02:04:57;12.35;;;7.25;;
24873;SDS011;12945;42.648;23.370;2024-03-23T02:07:22;14.07;;;6.40;;
24873;SDS011;12945;42.648;23.370;2024-03-23T02:09:49;9.82;;;5.82;;
24873;SDS011;12945;42.648;23.370;2024-03-23T02:12:15;9.45;;;5.35;;
24873;SDS011;12945;42.648;23.370;2024-03-23T02:14:41;10.68;;;5.97;;
24873;SDS011;12945;42.648;23.370;2024-03-23T02:17:06;11.02;;;6.47;;
24873;SDS011;12945;42.648;23.370;2024-03-23T02:19:31;11.48;;;6.00;;
24873;SDS011;12945;42.648;23.370;2024-03-23T02:21:56;14.07;;;6.10;;
24873;SDS011;12945;42.648;23.370;2024-03-23T02:24:21;15.60;;;6.10;;
24873;SDS011;12945;42.648;23.370;2024-03-23T02:26:47;12.13;;;6.22;;
24873;SDS011;12945;42.648;23.370;2024-03-23T02:29:13;11.35;;;6.05;;
24873;SDS011;12945;42.648;23.370;2024-03-23T02:31:38;12.43;;;6.40;;
24873;SDS011;12945;42.648;23.370;2024-03-23T02:34:04;11.05;;;6.35;;
24873;SDS011;12945;42.648;23.370;2024-03-23T02:36:29;12.15;;;7.00;;
24873;SDS011;12945;42.648;23.370;2024-03-23T02:38:56;12.52;;;6.40;;
24873;SDS011;12945;42.648;23.370;2024-03-23T02:41:21;16.05;;;7.03;;
24873;SDS011;12945;42.648;23.370;2024-03-23T02:43:49;12.93;;;6.43;;
24873;SDS011;12945;42.648;23.370;2024-03-23T02:46:14;11.90;;;6.75;;
24873;SDS011;12945;42.648;23.370;2024-03-23T02:48:39;13.25;;;6.20;;
24873;SDS011;12945;42.648;23.370;2024-03-23T02:51:05;11.23;;;6.45;;
24873;SDS011;12945;42.648;23.370;2024-03-23T02:53:30;14.60;;;6.78;;
24873;SDS011;12945;42.648;23.370;2024-03-23T02:55:57;15.02;;;6.78;;
24873;SDS011;12945;42.648;23.370;2024-03-23T02:58:22;11.63;;;6.45;;
24873;SDS011;12945;42.648;23.370;2024-03-23T03:00:47;11.20;;;6.80;;
24873;SDS011;12945;42.648;23.370;2024-03-23T03:03:13;11.40;;;6.55;;
24873;SDS011;12945;42.648;23.370;2024-03-23T03:05:38;13.82;;;6.95;;
24873;SDS011;12945;42.648;23.370;2024-03-23T03:08:03;11.75;;;6.70;;
24873;SDS011;12945;42.648;23.370;2024-03-23T03:10:29;11.27;;;6.63;;
24873;SDS011;12945;42.648;23.370;2024-03-23T03:12:55;18.23;;;7.03;;
24873;SDS011;12945;42.648;23.370;2024-03-23T03:15:20;15.68;;;6.75;;
24873;SDS011;12945;42.648;23.370;2024-03-23T03:17:46;15.35;;;8.10;;
24873;SDS011;12945;42.648;23.370;2024-03-23T03:20:11;10.63;;;6.50;;
24873;SDS011;12945;42.648;23.370;2024-03-23T03:22:38;13.77;;;6.75;;
24873;SDS011;12945;42.648;23.370;2024-03-23T03:25:04;12.77;;;6.85;;
24873;SDS011;12945;42.648;23.370;2024-03-23T03:27:30;14.10;;;7.00;;
24873;SDS011;12945;42.648;23.370;2024-03-23T03:29:55;14.45;;;6.85;;
24873;SDS011;12945;42.648;23.370;2024-03-23T03:32:21;12.02;;;6.63;;
24873;SDS011;12945;42.648;23.370;2024-03-23T03:34:46;13.20;;;7.57;;
24873;SDS011;12945;42.648;23.370;2024-03-23T03:37:11;14.00;;;6.80;;
24873;SDS011;12945;42.648;23.370;2024-03-23T03:39:37;13.73;;;7.40;;
24873;SDS011;12945;42.648;23.370;2024-03-23T03:42:02;15.27;;;7.45;;
24873;SDS011;12945;42.648;23.370;2024-03-23T03:44:31;15.70;;;7.43;;
24873;SDS011;12945;42.648;23.370;2024-03-23T03:46:57;12.73;;;7.35;;
24873;SDS011;12945;42.648;23.370;2024-03-23T03:49:22;13.90;;;7.70;;
24873;SDS011;12945;42.648;23.370;2024-03-23T03:51:47;13.75;;;7.68;;
24873;SDS011;12945;42.648;23.370;2024-03-23T03:54:13;15.80;;;7.03;;
24873;SDS011;12945;42.648;23.370;2024-03-23T03:56:38;18.40;;;8.02;;
24873;SDS011;12945;42.648;23.370;2024-03-23T03:59:03;15.43;;;7.80;;
24873;SDS011;12945;42.648;23.370;2024-03-23T04:01:29;15.27;;;6.97;;
24873;SDS011;12945;42.648;23.370;2024-03-23T04:03:54;14.25;;;7.65;;
24873;SDS011;12945;42.648;23.370;2024-03-23T04:06:19;15.40;;;8.35;;
24873;SDS011;12945;42.648;23.370;2024-03-23T04:08:45;17.58;;;8.10;;
24873;SDS011;12945;42.648;23.370;2024-03-23T04:11:10;16.63;;;8.88;;
24873;SDS011;12945;42.648;23.370;2024-03-23T04:13:35;18.80;;;8.15;;
24873;SDS011;12945;42.648;23.370;2024-03-23T04:16:01;17.00;;;8.43;;
24873;SDS011;12945;42.648;23.370;2024-03-23T04:18:26;18.25;;;8.48;;
24873;SDS011;12945;42.648;23.370;2024-03-23T04:20:51;16.17;;;8.05;;
24873;SDS011;12945;42.648;23.370;2024-03-23T04:23:17;16.75;;;8.02;;
24873;SDS011;12945;42.648;23.370;2024-03-23T04:25:42;21.02;;;8.23;;
24873;SDS011;12945;42.648;23.370;2024-03-23T04:28:07;16.67;;;8.73;;
24873;SDS011;12945;42.648;23.370;2024-03-23T04:30:32;12.63;;;7.38;;
24873;SDS011;12945;42.648;23.370;2024-03-23T04:32:58;15.98;;;8.07;;
24873;SDS011;12945;42.648;23.370;2024-03-23T04:35:23;14.52;;;7.68;;
24873;SDS011;12945;42.648;23.370;2024-03-23T04:37:50;25.52;;;8.63;;
24873;SDS011;12945;42.648;23.370;2024-03-23T04:40:17;13.50;;;7.95;;
24873;SDS011;12945;42.648;23.370;2024-03-23T04:42:42;13.98;;;6.85;;
24873;SDS011;12945;42.648;23.370;2024-03-23T04:45:08;15.18;;;8.23;;
24873;SDS011;12945;42.648;23.370;2024-03-23T04:47:33;15.48;;;8.43;;
24873;SDS011;12945;42.648;23.370;2024-03-23T04:50:00;15.95;;;9.05;;
24873;SDS011;12945;42.648;23.370;2024-03-23T04:52:26;17.75;;;9.00;;
24873;SDS011;12945;42.648;23.370;2024-03-23T04:54:52;19.10;;;8.65;;
24873;SDS011;12945;42.648;23.370;2024-03-23T04:57:17;16.33;;;7.93;;
24873;SDS011;12945;42.648;23.370;2024-03-23T04:59:42;16.63;;;8.20;;
24873;SDS011;12945;42.648;23.370;2024-03-23T05:02:07;16.27;;;7.63;;
24873;SDS011;12945;42.648;23.370;2024-03-23T05:04:33;17.75;;;8.15;;
24873;SDS011;12945;42.648;23.370;2024-03-23T05:06:58;18.17;;;8.25;;
24873;SDS011;12945;42.648;23.370;2024-03-23T05:09:23;18.10;;;8.68;;
24873;SDS011;12945;42.648;23.370;2024-03-23T05:11:48;18.20;;;8.20;;
24873;SDS011;12945;42.648;23.370;2024-03-23T05:14:14;15.57;;;8.02;;
24873;SDS011;12945;42.648;23.370;2024-03-23T05:16:39;18.42;;;8.05;;
24873;SDS011;12945;42.648;23.370;2024-03-23T05:19:05;31.25;;;8.52;;
24873;SDS011;12945;42.648;23.370;2024-03-23T05:21:30;15.35;;;7.55;;
24873;SDS011;12945;42.648;23.370;2024-03-23T05:23:55;15.35;;;7.55;;
24873;SDS011;12945;42.648;23.370;2024-03-23T05:26:21;14.13;;;8.07;;
24873;SDS011;12945;42.648;23.370;2024-03-23T05:28:46;17.20;;;8.25;;
24873;SDS011;12945;42.648;23.370;2024-03-23T05:31:12;16.13;;;8.57;;
24873;SDS011;12945;42.648;23.370;2024-03-23T05:33:37;15.80;;;8.02;;
24873;SDS011;12945;42.648;23.370;2024-03-23T05:36:06;15.55;;;7.55;;
24873;SDS011;12945;42.648;23.370;2024-03-23T05:38:33;14.85;;;8.40;;
24873;SDS011;12945;42.648;23.370;2024-03-23T05:40:59;19.52;;;8.65;;
24873;SDS011;12945;42.648;23.370;2024-03-23T05:43:25;28.90;;;9.13;;
24873;SDS011;12945;42.648;23.370;2024-03-23T05:45:57;20.27;;;9.25;;
24873;SDS011;12945;42.648;23.370;2024-03-23T05:48:22;17.80;;;9.75;;
24873;SDS011;12945;42.648;23.370;2024-03-23T05:50:48;19.65;;;9.05;;
24873;SDS011;12945;42.648;23.370;2024-03-23T05:53:14;17.17;;;9.38;;
24873;SDS011;12945;42.648;23.370;2024-03-23T05:55:39;18.90;;;9.15;;
24873;SDS011;12945;42.648;23.370;2024-03-23T05:58:05;21.30;;;9.07;;
24873;SDS011;12945;42.648;23.370;2024-03-23T06:00:30;19.10;;;9.50;;
24873;SDS011;12945;42.648;23.370;2024-03-23T06:02:55;19.67;;;8.82;;
24873;SDS011;12945;42.648;23.370;2024-03-23T06:05:20;16.88;;;8.98;;
24873;SDS011;12945;42.648;23.370;2024-03-23T06:07:46;21.17;;;10.10;;
24873;SDS011;12945;42.648;23.370;2024-03-23T06:10:11;18.70;;;9.70;;
24873;SDS011;12945;42.648;23.370;2024-03-23T06:12:36;22.23;;;10.38;;
24873;SDS011;12945;42.648;23.370;2024-03-23T06:15:01;22.75;;;10.80;;
24873;SDS011;12945;42.648;23.370;2024-03-23T06:17:27;21.45;;;10.10;;
24873;SDS011;12945;42.648;23.370;2024-03-23T06:19:52;20.45;;;10.20;;
24873;SDS011;12945;42.648;23.370;2024-03-23T06:22:17;17.83;;;9.95;;
24873;SDS011;12945;42.648;23.370;2024-03-23T06:24:42;18.02;;;9.68;;
24873;SDS011;12945;42.648;23.370;2024-03-23T06:27:09;20.58;;;10.95;;
24873;SDS011;12945;42.648;23.370;2024-03-23T06:29:34;16.70;;;9.70;;
24873;SDS011;12945;42.648;23.370;2024-03-23T06:32:00;16.95;;;9.55;;
24873;SDS011;12945;42.648;23.370;2024-03-23T06:34:25;19.42;;;10.07;;
24873;SDS011;12945;42.648;23.370;2024-03-23T06:36:51;20.27;;;9.52;;
24873;SDS011;12945;42.648;23.370;2024-03-23T06:39:16;22.33;;;10.05;;
24873;SDS011;12945;42.648;23.370;2024-03-23T06:41:42;28.70;;;11.25;;
24873;SDS011;12945;42.648;23.370;2024-03-23T06:44:07;21.45;;;11.32;;
24873;SDS011;12945;42.648;23.370;2024-03-23T06:46:32;21.45;;;9.82;;
24873;SDS011;12945;42.648;23.370;2024-03-23T06:48:58;19.05;;;8.27;;
24873;SDS011;12945;42.648;23.370;2024-03-23T06:51:23;17.73;;;8.70;;
24873;SDS011;12945;42.648;23.370;2024-03-23T06:53:49;20.38;;;8.50;;
24873;SDS011;12945;42.648;23.370;2024-03-23T06:56:14;16.90;;;8.70;;
24873;SDS011;12945;42.648;23.370;2024-03-23T06:58:40;22.10;;;9.50;;
24873;SDS011;12945;42.648;23.370;2024-03-23T07:01:05;17.33;;;9.25;;
24873;SDS011;12945;42.648;23.370;2024-03-23T07:03:30;23.10;;;11.23;;
24873;SDS011;12945;42.648;23.370;2024-03-23T07:05:57;18.70;;;10.98;;
24873;SDS011;12945;42.648;23.370;2024-03-23T07:08:23;29.35;;;12.75;;
24873;SDS011;12945;42.648;23.370;2024-03-23T07:10:48;22.85;;;12.38;;
24873;SDS011;12945;42.648;23.370;2024-03-23T07:13:13;26.77;;;11.93;;
24873;SDS011;12945;42.648;23.370;2024-03-23T07:15:39;23.02;;;11.95;;
24873;SDS011;12945;42.648;23.370;2024-03-23T07:18:04;20.25;;;11.18;;
24873;SDS011;12945;42.648;23.370;2024-03-23T07:20:29;25.45;;;11.07;;
24873;SDS011;12945;42.648;23.370;2024-03-23T07:22:56;22.70;;;11.32;;
24873;SDS011;12945;42.648;23.370;2024-03-23T07:25:21;18.25;;;11.27;;
24873;SDS011;12945;42.648;23.370;2024-03-23T07:27:48;24.17;;;11.18;;
24873;SDS011;12945;42.648;23.370;2024-03-23T07:30:13;21.58;;;11.43;;
24873;SDS011;12945;42.648;23.370;2024-03-23T07:32:39;30.02;;;12.35;;
24873;SDS011;12945;42.648;23.370;2024-03-23T07:35:04;23.52;;;11.88;;
24873;SDS011;12945;42.648;23.370;2024-03-23T07:37:29;23.08;;;11.90;;
24873;SDS011;12945;42.648;23.370;2024-03-23T07:39:55;23.77;;;12.20;;
24873;SDS011;12945;42.648;23.370;2024-03-23T07:42:20;22.73;;;11.80;;
24873;SDS011;12945;42.648;23.370;2024-03-23T07:44:45;23.25;;;11.25;;
24873;SDS011;12945;42.648;23.370;2024-03-23T07:47:11;26.08;;;12.35;;
24873;SDS011;12945;42.648;23.370;2024-03-23T07:49:37;27.48;;;12.65;;
24873;SDS011;12945;42.648;23.370;2024-03-23T07:52:02;28.52;;;13.35;;
24873;SDS011;12945;42.648;23.370;2024-03-23T07:54:27;27.27;;;12.88;;
24873;SDS011;12945;42.648;23.370;2024-03-23T07:56:53;29.25;;;14.13;;
24873;SDS011;12945;42.648;23.370;2024-03-23T07:59:19;25.88;;;14.05;;
24873;SDS011;12945;42.648;23.370;2024-03-23T08:01:44;27.42;;;13.63;;
24873;SDS011;12945;42.648;23.370;2024-03-23T08:04:10;26.13;;;13.25;;
24873;SDS011;12945;42.648;23.370;2024-03-23T08:06:35;32.88;;;13.80;;
24873;SDS011;12945;42.648;23.370;2024-03-23T08:09:00;28.42;;;12.73;;
24873;SDS011;12945;42.648;23.370;2024-03-23T08:11:26;26.83;;;13.07;;
24873;SDS011;12945;42.648;23.370;2024-03-23T08:13:52;25.95;;;12.38;;
24873;SDS011;12945;42.648;23.370;2024-03-23T08:16:17;26.27;;;13.80;;
24873;SDS011;12945;42.648;23.370;2024-03-23T08:18:42;25.17;;;12.68;;
24873;SDS011;12945;42.648;23.370;2024-03-23T08:21:08;37.20;;;13.75;;
24873;SDS011;12945;42.648;23.370;2024-03-23T08:23:34;25.20;;;12.82;;
24873;SDS011;12945;42.648;23.370;2024-03-23T08:26:01;23.23;;;12.48;;
24873;SDS011;12945;42.648;23.370;2024-03-23T08:28:27;24.63;;;12.57;;
24873;SDS011;12945;42.648;23.370;2024-03-23T08:30:53;32.00;;;12.07;;
24873;SDS011;12945;42.648;23.370;2024-03-23T08:33:18;21.48;;;11.50;;
24873;SDS011;12945;42.648;23.370;2024-03-23T08:35:52;28.90;;;13.00;;
24873;SDS011;12945;42.648;23.370;2024-03-23T08:38:17;24.58;;;11.95;;
24873;SDS011;12945;42.648;23.370;2024-03-23T08:40:43;28.75;;;12.25;;
24873;SDS011;12945;42.648;23.370;2024-03-23T08:43:08;24.75;;;11.52;;
24873;SDS011;12945;42.648;23.370;2024-03-23T08:45:33;28.30;;;12.50;;
24873;SDS011;12945;42.648;23.370;2024-03-23T08:47:58;26.00;;;12.63;;
24873;SDS011;12945;42.648;23.370;2024-03-23T08:50:24;25.17;;;12.13;;
24873;SDS011;12945;42.648;23.370;2024-03-23T08:52:50;21.13;;;12.05;;
24873;SDS011;12945;42.648;23.370;2024-03-23T08:55:15;24.08;;;12.82;;
24873;SDS011;12945;42.648;23.370;2024-03-23T08:57:41;26.95;;;13.13;;
24873;SDS011;12945;42.648;23.370;2024-03-23T09:00:06;25.60;;;13.35;;
24873;SDS011;12945;42.648;23.370;2024-03-23T09:02:33;29.45;;;12.82;;
24873;SDS011;12945;42.648;23.370;2024-03-23T09:04:59;22.35;;;11.82;;
24873;SDS011;12945;42.648;23.370;2024-03-23T09:07:30;28.15;;;12.50;;
24873;SDS011;12945;42.648;23.370;2024-03-23T09:09:55;25.23;;;11.48;;
24873;SDS011;12945;42.648;23.370;2024-03-23T09:12:20;23.20;;;12.30;;
24873;SDS011;12945;42.648;23.370;2024-03-23T09:14:46;30.10;;;11.55;;
24873;SDS011;12945;42.648;23.370;2024-03-23T09:17:11;27.10;;;11.80;;
24873;SDS011;12945;42.648;23.370;2024-03-23T09:19:36;27.85;;;11.80;;
24873;SDS011;12945;42.648;23.370;2024-03-23T09:22:01;27.38;;;12.52;;
24873;SDS011;12945;42.648;23.370;2024-03-23T09:24:27;22.13;;;11.20;;
24873;SDS011;12945;42.648;23.370;2024-03-23T09:26:52;26.30;;;11.63;;
24873;SDS011;12945;42.648;23.370;2024-03-23T09:29:17;21.27;;;11.60;;
24873;SDS011;12945;42.648;23.370;2024-03-23T09:31:43;22.77;;;10.90;;
24873;SDS011;12945;42.648;23.370;2024-03-23T09:34:08;22.08;;;10.52;;
24873;SDS011;12945;42.648;23.370;2024-03-23T09:36:33;18.25;;;10.88;;
24873;SDS011;12945;42.648;23.370;2024-03-23T09:38:59;17.90;;;10.80;;
24873;SDS011;12945;42.648;23.370;2024-03-23T09:41:24;20.13;;;10.43;;
24873;SDS011;12945;42.648;23.370;2024-03-23T09:43:52;21.45;;;10.35;;
24873;SDS011;12945;42.648;23.370;2024-03-23T09:46:17;21.48;;;10.68;;
24873;SDS011;12945;42.648;23.370;2024-03-23T09:48:42;19.65;;;9.75;;
24873;SDS011;12945;42.648;23.370;2024-03-23T09:51:08;18.60;;;9.93;;
24873;SDS011;12945;42.648;23.370;2024-03-23T09:53:34;16.75;;;9.25;;
24873;SDS011;12945;42.648;23.370;2024-03-23T09:55:59;22.58;;;9.77;;
24873;SDS011;12945;42.648;23.370;2024-03-23T09:58:25;27.20;;;9.30;;
24873;SDS011;12945;42.648;23.370;2024-03-23T10:00:50;17.92;;;9.07;;
24873;SDS011;12945;42.648;23.370;2024-03-23T10:03:15;20.65;;;9.15;;
24873;SDS011;12945;42.648;23.370;2024-03-23T10:05:41;16.80;;;9.20;;
24873;SDS011;12945;42.648;23.370;2024-03-23T10:08:17;20.38;;;9.68;;
24873;SDS011;12945;42.648;23.370;2024-03-23T10:10:42;22.10;;;10.93;;
24873;SDS011;12945;42.648;23.370;2024-03-23T10:13:08;18.73;;;10.25;;
24873;SDS011;12945;42.648;23.370;2024-03-23T10:15:33;18.65;;;9.77;;
24873;SDS011;12945;42.648;23.370;2024-03-23T10:17:59;23.70;;;10.60;;
24873;SDS011;12945;42.648;23.370;2024-03-23T10:20:42;16.15;;;10.25;;
24873;SDS011;12945;42.648;23.370;2024-03-23T10:23:15;17.95;;;10.85;;
24873;SDS011;12945;42.648;23.370;2024-03-23T10:25:40;15.88;;;9.27;;
24873;SDS011;12945;42.648;23.370;2024-03-23T10:28:05;18.92;;;8.60;;
24873;SDS011;12945;42.648;23.370;2024-03-23T10:30:31;15.77;;;8.30;;
24873;SDS011;12945;42.648;23.370;2024-03-23T10:33:17;14.40;;;8.82;;
24873;SDS011;12945;42.648;23.370;2024-03-23T10:35:43;18.75;;;8.82;;
24873;SDS011;12945;42.648;23.370;2024-03-23T10:38:08;15.00;;;8.52;;
24873;SDS011;12945;42.648;23.370;2024-03-23T10:40:34;12.10;;;8.27;;
24873;SDS011;12945;42.648;23.370;2024-03-23T10:43:00;16.58;;;9.10;;
24873;SDS011;12945;42.648;23.370;2024-03-23T10:45:25;17.30;;;9.25;;
24873;SDS011;12945;42.648;23.370;2024-03-23T10:47:50;14.88;;;8.93;;
24873;SDS011;12945;42.648;23.370;2024-03-23T10:50:16;14.85;;;9.23;;
24873;SDS011;12945;42.648;23.370;2024-03-23T10:52:42;14.70;;;8.68;;
24873;SDS011;12945;42.648;23.370;2024-03-23T10:55:10;20.35;;;9.25;;
24873;SDS011;12945;42.648;23.370;2024-03-23T10:57:49;17.10;;;9.65;;
24873;SDS011;12945;42.648;23.370;2024-03-23T11:02:41;22.00;;;8.80;;
24873;SDS011;12945;42.648;23.370;2024-03-23T11:07:51;17.35;;;9.55;;
24873;SDS011;12945;42.648;23.370;2024-03-23T11:10:49;16.40;;;7.88;;
24873;SDS011;12945;42.648;23.370;2024-03-23T11:13:30;12.88;;;7.78;;
24873;SDS011;12945;42.648;23.370;2024-03-23T11:15:55;16.73;;;8.65;;
24873;SDS011;12945;42.648;23.370;2024-03-23T11:18:20;12.82;;;8.35;;
24873;SDS011;12945;42.648;23.370;2024-03-23T11:20:46;17.08;;;8.90;;
24873;SDS011;12945;42.648;23.370;2024-03-23T11:23:25;22.25;;;9.95;;
24873;SDS011;12945;42.648;23.370;2024-03-23T11:25:51;16.23;;;9.38;;
24873;SDS011;12945;42.648;23.370;2024-03-23T11:28:17;22.17;;;11.02;;
24873;SDS011;12945;42.648;23.370;2024-03-23T11:30:42;15.57;;;8.57;;
24873;SDS011;12945;42.648;23.370;2024-03-23T11:33:07;17.30;;;10.80;;
24873;SDS011;12945;42.648;23.370;2024-03-23T11:35:33;14.63;;;9.50;;
24873;SDS011;12945;42.648;23.370;2024-03-23T11:38:09;16.48;;;8.75;;
24873;SDS011;12945;42.648;23.370;2024-03-23T11:40:35;17.80;;;9.05;;
24873;SDS011;12945;42.648;23.370;2024-03-23T11:43:01;14.15;;;8.75;;
24873;SDS011;12945;42.648;23.370;2024-03-23T11:45:28;17.75;;;8.65;;
24873;SDS011;12945;42.648;23.370;2024-03-23T11:48:09;15.10;;;8.82;;
24873;SDS011;12945;42.648;23.370;2024-03-23T11:50:36;19.13;;;8.73;;
24873;SDS011;12945;42.648;23.370;2024-03-23T11:58:27;12.73;;;8.30;;
24873;SDS011;12945;42.648;23.370;2024-03-23T12:00:56;15.70;;;7.72;;
24873;SDS011;12945;42.648;23.370;2024-03-23T12:03:22;15.70;;;8.15;;
24873;SDS011;12945;42.648;23.370;2024-03-23T12:05:51;14.45;;;8.07;;
24873;SDS011;12945;42.648;23.370;2024-03-23T12:08:21;15.20;;;8.30;;
24873;SDS011;12945;42.648;23.370;2024-03-23T12:10:48;16.77;;;8.35;;
24873;SDS011;12945;42.648;23.370;2024-03-23T12:13:17;16.02;;;8.20;;
24873;SDS011;12945;42.648;23.370;2024-03-23T12:15:43;16.60;;;7.57;;
24873;SDS011;12945;42.648;23.370;2024-03-23T12:18:09;15.75;;;7.80;;
24873;SDS011;12945;42.648;23.370;2024-03-23T12:20:34;15.50;;;8.65;;
24873;SDS011;12945;42.648;23.370;2024-03-23T12:23:06;11.25;;;7.53;;
24873;SDS011;12945;42.648;23.370;2024-03-23T12:25:32;13.13;;;8.10;;
24873;SDS011;12945;42.648;23.370;2024-03-23T12:27:58;11.15;;;7.35;;
24873;SDS011;12945;42.648;23.370;2024-03-23T12:30:24;16.40;;;7.90;;
24873;SDS011;12945;42.648;23.370;2024-03-23T12:32:49;14.60;;;7.40;;
24873;SDS011;12945;42.648;23.370;2024-03-23T12:35:14;14.33;;;7.53;;
24873;SDS011;12945;42.648;23.370;2024-03-23T12:37:39;12.53;;;7.57;;
24873;SDS011;12945;42.648;23.370;2024-03-23T12:40:05;12.30;;;7.18;;
24873;SDS011;12945;42.648;23.370;2024-03-23T12:42:30;17.23;;;7.38;;
24873;SDS011;12945;42.648;23.370;2024-03-23T12:44:56;12.17;;;6.80;;
24873;SDS011;12945;42.648;23.370;2024-03-23T12:47:21;11.50;;;6.97;;
24873;SDS011;12945;42.648;23.370;2024-03-23T12:49:46;13.13;;;6.93;;
24873;SDS011;12945;42.648;23.370;2024-03-23T12:52:11;11.83;;;6.60;;
24873;SDS011;12945;42.648;23.370;2024-03-23T12:54:37;12.48;;;6.95;;
24873;SDS011;12945;42.648;23.370;2024-03-23T12:57:03;8.93;;;6.37;;
24873;SDS011;12945;42.648;23.370;2024-03-23T12:59:28;10.80;;;7.03;;
24873;SDS011;12945;42.648;23.370;2024-03-23T13:01:53;9.02;;;5.90;;
24873;SDS011;12945;42.648;23.370;2024-03-23T13:04:20;9.85;;;5.30;;
24873;SDS011;12945;42.648;23.370;2024-03-23T13:06:45;8.98;;;4.65;;
24873;SDS011;12945;42.648;23.370;2024-03-23T13:09:10;8.45;;;4.88;;
24873;SDS011;12945;42.648;23.370;2024-03-23T13:11:36;7.15;;;3.55;;
24873;SDS011;12945;42.648;23.370;2024-03-23T13:14:01;11.65;;;3.58;;
24873;SDS011;12945;42.648;23.370;2024-03-23T13:16:28;8.23;;;3.70;;
24873;SDS011;12945;42.648;23.370;2024-03-23T13:18:54;6.50;;;4.37;;
24873;SDS011;12945;42.648;23.370;2024-03-23T13:21:19;7.82;;;3.40;;
24873;SDS011;12945;42.648;23.370;2024-03-23T13:23:47;9.07;;;4.20;;
24873;SDS011;12945;42.648;23.370;2024-03-23T13:26:13;6.45;;;3.38;;
24873;SDS011;12945;42.648;23.370;2024-03-23T13:28:38;7.05;;;3.85;;
24873;SDS011;12945;42.648;23.370;2024-03-23T13:31:04;11.77;;;4.72;;
24873;SDS011;12945;42.648;23.370;2024-03-23T13:33:29;8.02;;;4.07;;
24873;SDS011;12945;42.648;23.370;2024-03-23T13:35:55;8.00;;;3.83;;
24873;SDS011;12945;42.648;23.370;2024-03-23T13:38:21;6.47;;;3.92;;
24873;SDS011;12945;42.648;23.370;2024-03-23T13:40:53;7.15;;;3.38;;
24873;SDS011;12945;42.648;23.370;2024-03-23T13:43:19;5.10;;;3.63;;
24873;SDS011;12945;42.648;23.370;2024-03-23T13:45:44;6.50;;;3.83;;
24873;SDS011;12945;42.648;23.370;2024-03-23T13:48:09;10.48;;;3.13;;
24873;SDS011;12945;42.648;23.370;2024-03-23T13:50:35;6.03;;;3.70;;
24873;SDS011;12945;42.648;23.370;2024-03-23T13:53:00;4.57;;;2.20;;
24873;SDS011;12945;42.648;23.370;2024-03-23T13:55:26;6.85;;;2.30;;
24873;SDS011;12945;42.648;23.370;2024-03-23T13:57:51;3.63;;;2.40;;
24873;SDS011;12945;42.648;23.370;2024-03-23T14:00:16;10.60;;;2.67;;
24873;SDS011;12945;42.648;23.370;2024-03-23T14:02:43;3.63;;;2.08;;
24873;SDS011;12945;42.648;23.370;2024-03-23T14:05:08;7.57;;;2.50;;
24873;SDS011;12945;42.648;23.370;2024-03-23T14:07:34;3.38;;;2.15;;
24873;SDS011;12945;42.648;23.370;2024-03-23T14:10:02;3.03;;;1.90;;
24873;SDS011;12945;42.648;23.370;2024-03-23T14:12:27;8.20;;;3.92;;
24873;SDS011;12945;42.648;23.370;2024-03-23T14:14:52;8.30;;;4.50;;
24873;SDS011;12945;42.648;23.370;2024-03-23T14:17:18;9.02;;;4.60;;
24873;SDS011;12945;42.648;23.370;2024-03-23T14:19:44;4.65;;;2.95;;
24873;SDS011;12945;42.648;23.370;2024-03-23T14:22:09;6.65;;;2.78;;
24873;SDS011;12945;42.648;23.370;2024-03-23T14:24:35;4.25;;;1.70;;
24873;SDS011;12945;42.648;23.370;2024-03-23T14:27:00;5.17;;;1.80;;
24873;SDS011;12945;42.648;23.370;2024-03-23T14:29:28;2.33;;;1.63;;
24873;SDS011;12945;42.648;23.370;2024-03-23T14:31:53;3.78;;;1.48;;
24873;SDS011;12945;42.648;23.370;2024-03-23T14:34:18;2.07;;;1.37;;
24873;SDS011;12945;42.648;23.370;2024-03-23T14:36:44;3.13;;;2.00;;
24873;SDS011;12945;42.648;23.370;2024-03-23T14:39:09;3.53;;;1.70;;
24873;SDS011;12945;42.648;23.370;2024-03-23T14:41:34;4.20;;;1.83;;
24873;SDS011;12945;42.648;23.370;2024-03-23T14:44:00;3.30;;;1.70;;
24873;SDS011;12945;42.648;23.370;2024-03-23T14:46:25;4.50;;;1.50;;
24873;SDS011;12945;42.648;23.370;2024-03-23T14:48:50;3.85;;;1.50;;
24873;SDS011;12945;42.648;23.370;2024-03-23T14:51:16;4.57;;;1.65;;
24873;SDS011;12945;42.648;23.370;2024-03-23T14:53:44;8.13;;;5.88;;
24873;SDS011;12945;42.648;23.370;2024-03-23T14:56:09;4.75;;;3.15;;
24873;SDS011;12945;42.648;23.370;2024-03-23T15:01:05;3.15;;;2.25;;
24873;SDS011;12945;42.648;23.370;2024-03-23T15:03:34;8.48;;;5.45;;
24873;SDS011;12945;42.648;23.370;2024-03-23T15:05:59;6.88;;;3.28;;
24873;SDS011;12945;42.648;23.370;2024-03-23T15:08:26;5.00;;;2.58;;
24873;SDS011;12945;42.648;23.370;2024-03-23T15:10:53;5.32;;;1.50;;
24873;SDS011;12945;42.648;23.370;2024-03-23T15:13:18;3.10;;;1.75;;
24873;SDS011;12945;42.648;23.370;2024-03-23T15:15:44;11.23;;;2.13;;
24873;SDS011;12945;42.648;23.370;2024-03-23T15:18:13;2.03;;;1.70;;
24873;SDS011;12945;42.648;23.370;2024-03-23T15:20:39;3.85;;;1.75;;